Time;durP1;ratioP1;P1;durP2;ratioP2;P2;SDS_P1;SDS_P2;PMS_P1;PMS_P2;Temp;Humidity;BMP_temperature;BMP_pressure;BME280_temperature;BME280_humidity;BME280_pressure;Samples;Min_cycle;Max_cycle;Signal;HPM_P1;HPM_P2
2020/01/05 00:02:12;;;;;;;4.1;2.5;;;;;;;;;;;;;
2020/01/05 00:04:37;;;;;;;5.4;2.7;;;;;;;;;;;;;
2020/01/05 00:07:02;;;;;;;4.5;2.1;;;;;;;;;;;;;
2020/01/05 00:09:28;;;;;;;5.1;2.1;;;;;;;;;;;;;
2020/01/05 00:11:53;;;;;;;5.3;2.3;;;;;;;;;;;;;
2020/01/05 00:14:18;;;;;;;6.8;2.2;;;;;;;;;;;;;
2020/01/05 00:16:59;;;;;;;3.9;1.9;;;;;;;;;;;;;
2020/01/05 00:19:08;;;;;;;3.9;1.9;;;;;;;;;;;;;
2020/01/05 00:21:33;;;;;;;4.1;2;;;;;;;;;;;;;
2020/01/05 00:23:58;;;;;;;4.9;2;;;;;;;;;;;;;
2020/01/05 00:26:23;;;;;;;5.1;2.1;;;;;;;;;;;;;
2020/01/05 00:28:48;;;;;;;5.9;2.2;;;;;;;;;;;;;
2020/01/05 00:31:13;;;;;;;6;2.2;;;;;;;;;;;;;
2020/01/05 00:33:38;;;;;;;5.5;2.2;;;;;;;;;;;;;
2020/01/05 00:36:09;;;;;;;4.7;2;;;;;;;;;;;;;
2020/01/05 00:38:29;;;;;;;6.3;2.3;;;;;;;;;;;;;
2020/01/05 00:40:54;;;;;;;4.1;1.9;;;;;;;;;;;;;
2020/01/05 00:43:19;;;;;;;6.3;2.6;;;;;;;;;;;;;
2020/01/05 00:45:44;;;;;;;6.1;2.6;;;;;;;;;;;;;
2020/01/05 00:48:09;;;;;;;6.3;2.6;;;;;;;;;;;;;
2020/01/05 00:50:35;;;;;;;5.2;2.1;;;;;;;;;;;;;
2020/01/05 00:53:00;;;;;;;5;2;;;;;;;;;;;;;
2020/01/05 00:55:25;;;;;;;4.2;2;;;;;;;;;;;;;
2020/01/05 00:57:50;;;;;;;3.4;1.9;;;;;;;;;;;;;
2020/01/05 01:00:15;;;;;;;5;2.1;;;;;;;;;;;;;
2020/01/05 01:02:40;;;;;;;5.1;2.3;;;;;;;;;;;;;
2020/01/05 01:05:05;;;;;;;4.6;2.3;;;;;;;;;;;;;
2020/01/05 01:07:30;;;;;;;8;2.3;;;;;;;;;;;;;
2020/01/05 01:09:55;;;;;;;4.9;2.3;;;;;;;;;;;;;
2020/01/05 01:12:21;;;;;;;4.9;2.1;;;;;;;;;;;;;
2020/01/05 01:14:46;;;;;;;5.2;1.7;;;;;;;;;;;;;
2020/01/05 01:17:11;;;;;;;4.3;2.1;;;;;;;;;;;;;
2020/01/05 01:19:36;;;;;;;4.9;1.9;;;;;;;;;;;;;
2020/01/05 01:22:01;;;;;;;4.4;1.9;;;;;;;;;;;;;
2020/01/05 01:24:26;;;;;;;7.1;2;;;;;;;;;;;;;
2020/01/05 01:26:51;;;;;;;5.3;1.9;;;;;;;;;;;;;
2020/01/05 01:29:16;;;;;;;4.8;2.1;;;;;;;;;;;;;
2020/01/05 01:31:42;;;;;;;5.2;2.1;;;;;;;;;;;;;
2020/01/05 01:34:07;;;;;;;5.8;2;;;;;;;;;;;;;
2020/01/05 01:36:32;;;;;;;3.4;1.7;;;;;;;;;;;;;
2020/01/05 01:38:57;;;;;;;3.8;1.9;;;;;;;;;;;;;
2020/01/05 01:41:22;;;;;;;7.6;5.8;;;;;;;;;;;;;
2020/01/05 01:43:47;;;;;;;5.2;2.7;;;;;;;;;;;;;
2020/01/05 01:46:12;;;;;;;4.3;1.8;;;;;;;;;;;;;
2020/01/05 01:48:37;;;;;;;4.5;2.2;;;;;;;;;;;;;
2020/01/05 01:51:02;;;;;;;4.2;1.8;;;;;;;;;;;;;
2020/01/05 01:53:27;;;;;;;4.7;1.9;;;;;;;;;;;;;
2020/01/05 01:55:53;;;;;;;5.5;2.7;;;;;;;;;;;;;
2020/01/05 01:58:18;;;;;;;5;2.6;;;;;;;;;;;;;
2020/01/05 02:00:43;;;;;;;5.9;2;;;;;;;;;;;;;
2020/01/05 02:03:08;;;;;;;5.9;2;;;;;;;;;;;;;
2020/01/05 02:05:33;;;;;;;6.6;2.1;;;;;;;;;;;;;
2020/01/05 02:07:58;;;;;;;5;2.1;;;;;;;;;;;;;
2020/01/05 02:10:23;;;;;;;4.8;1.8;;;;;;;;;;;;;
2020/01/05 02:12:48;;;;;;;6.9;2;;;;;;;;;;;;;
2020/01/05 02:15:13;;;;;;;4.7;1.8;;;;;;;;;;;;;
2020/01/05 02:17:38;;;;;;;4.9;2;;;;;;;;;;;;;
2020/01/05 02:20:03;;;;;;;6.1;2;;;;;;;;;;;;;
2020/01/05 02:22:28;;;;;;;5.3;2;;;;;;;;;;;;;
2020/01/05 02:24:54;;;;;;;4.5;1.7;;;;;;;;;;;;;
2020/01/05 02:27:19;;;;;;;5.5;1.8;;;;;;;;;;;;;
2020/01/05 02:29:44;;;;;;;4.7;1.9;;;;;;;;;;;;;
2020/01/05 02:32:09;;;;;;;3.7;1.7;;;;;;;;;;;;;
2020/01/05 02:34:34;;;;;;;5.4;1.8;;;;;;;;;;;;;
2020/01/05 02:36:59;;;;;;;3.9;1.6;;;;;;;;;;;;;
2020/01/05 02:39:24;;;;;;;5.7;1.7;;;;;;;;;;;;;
2020/01/05 02:41:49;;;;;;;4.6;1.6;;;;;;;;;;;;;
2020/01/05 02:44:15;;;;;;;5.1;1.9;;;;;;;;;;;;;
2020/01/05 02:46:40;;;;;;;5.2;1.9;;;;;;;;;;;;;
2020/01/05 02:49:05;;;;;;;5;1.7;;;;;;;;;;;;;
2020/01/05 02:51:30;;;;;;;3.3;1.5;;;;;;;;;;;;;
2020/01/05 02:53:55;;;;;;;4.3;1.7;;;;;;;;;;;;;
2020/01/05 02:56:20;;;;;;;5.4;1.7;;;;;;;;;;;;;
2020/01/05 02:58:45;;;;;;;4.7;1.4;;;;;;;;;;;;;
2020/01/05 03:01:10;;;;;;;5.3;1.9;;;;;;;;;;;;;
2020/01/05 03:03:55;;;;;;;4.5;1.5;;;;;;;;;;;;;
2020/01/05 03:06:04;;;;;;;4.8;1.8;;;;;;;;;;;;;
2020/01/05 03:08:26;;;;;;;4.2;1.4;;;;;;;;;;;;;
2020/01/05 03:10:51;;;;;;;3.8;1.7;;;;;;;;;;;;;
2020/01/05 03:13:16;;;;;;;3.9;1.7;;;;;;;;;;;;;
2020/01/05 03:15:41;;;;;;;4.5;1.6;;;;;;;;;;;;;
2020/01/05 03:18:06;;;;;;;6.8;1.8;;;;;;;;;;;;;
2020/01/05 03:20:31;;;;;;;3.9;1.5;;;;;;;;;;;;;
2020/01/05 03:22:56;;;;;;;3.3;1.4;;;;;;;;;;;;;
2020/01/05 03:25:22;;;;;;;6.2;2.1;;;;;;;;;;;;;
2020/01/05 03:27:47;;;;;;;5.2;1.8;;;;;;;;;;;;;
2020/01/05 03:30:12;;;;;;;4.5;1.3;;;;;;;;;;;;;
2020/01/05 03:32:37;;;;;;;4.8;1.6;;;;;;;;;;;;;
2020/01/05 03:35:02;;;;;;;5.3;1.6;;;;;;;;;;;;;
2020/01/05 03:37:27;;;;;;;3.9;1.6;;;;;;;;;;;;;
2020/01/05 03:39:52;;;;;;;4.3;2.1;;;;;;;;;;;;;
2020/01/05 03:42:17;;;;;;;4.1;1.6;;;;;;;;;;;;;
2020/01/05 03:44:43;;;;;;;5.6;2;;;;;;;;;;;;;
2020/01/05 03:47:08;;;;;;;4.5;2.1;;;;;;;;;;;;;
2020/01/05 03:49:33;;;;;;;5.3;2.3;;;;;;;;;;;;;
2020/01/05 03:52:07;;;;;;;5.1;2.2;;;;;;;;;;;;;
2020/01/05 03:54:32;;;;;;;4.6;1.8;;;;;;;;;;;;;
2020/01/05 03:56:57;;;;;;;3.8;1.7;;;;;;;;;;;;;
2020/01/05 03:59:22;;;;;;;5.8;1.9;;;;;;;;;;;;;
2020/01/05 04:02:30;;;;;;;3.7;1.8;;;;;;;4.71;72.09961;953.1735;;;;
2020/01/05 04:04:55;;;;;;;5.3;1.7;;;;;;;4.75;71.08203;953.1638;;;;
2020/01/05 04:07:20;;;;;;;4.8;2.2;;;;;;;4.47;71.58691;953.1464;;;;
2020/01/05 04:09:45;;;;;;;4.1;1.9;;;;;;;4.51;71.68262;953.1691;;;;
2020/01/05 04:12:28;;;;;;;3.6;1.9;;;;;;;4.47;73.625;953.1987;;;;
2020/01/05 04:14:38;;;;;;;4.8;2.2;;;;;;;4.39;72.94629;953.1884;;;;
2020/01/05 04:17:01;;;;;;;4;1.9;;;;;;;4.44;73.7998;953.2071;;;;
2020/01/05 04:19:26;;;;;;;5.6;2.2;;;;;;;4.52;73.33984;953.1066;;;;
2020/01/05 04:21:51;;;;;;;4.9;2.3;;;;;;;4.55;73.85254;953.1055;;;;
2020/01/05 04:24:16;;;;;;;5.3;2.3;;;;;;;4.51;73.75586;953.2057;;;;
2020/01/05 04:26:42;;;;;;;4.2;1.9;;;;;;;4.44;75.23926;953.1794;;;;
2020/01/05 04:29:07;;;;;;;4.3;2.1;;;;;;;4.36;75.49707;953.2536;;;;
2020/01/05 04:31:32;;;;;;;4.5;1.7;;;;;;;4.36;75.54004;953.3322;;;;
2020/01/05 04:33:57;;;;;;;4.7;1.6;;;;;;;4.36;76.10254;953.3022;;;;
2020/01/05 04:36:22;;;;;;;4.2;1.7;;;;;;;4.4;75.7832;953.3306;;;;
2020/01/05 04:38:48;;;;;;;3;1.6;;;;;;;4.45;75.67969;953.2494;;;;
2020/01/05 04:41:13;;;;;;;3.6;1.4;;;;;;;4.43;76.03711;953.2626;;;;
2020/01/05 04:43:38;;;;;;;4;1.7;;;;;;;4.22;76.36035;953.2512;;;;
2020/01/05 04:46:03;;;;;;;6.9;3.8;;;;;;;4.18;76.45508;953.2936;;;;
2020/01/05 04:48:29;;;;;;;6.3;4.1;;;;;;;4.28;76.04297;953.338;;;;
2020/01/05 04:50:54;;;;;;;8.3;4.1;;;;;;;4.33;76.03027;953.348;;;;
2020/01/05 04:53:19;;;;;;;5.5;2.6;;;;;;;4.26;76.53516;953.4135;;;;
2020/01/05 04:55:44;;;;;;;4.3;2.2;;;;;;;4.21;76.62793;953.4698;;;;
2020/01/05 04:58:09;;;;;;;5;2.2;;;;;;;4.22;75.75098;953.4883;;;;
2020/01/05 05:00:35;;;;;;;5.6;2.5;;;;;;;4.24;76.11523;953.3738;;;;
2020/01/05 05:03:00;;;;;;;4.5;2.4;;;;;;;4.3;76.27344;953.5334;;;;
2020/01/05 05:05:25;;;;;;;4.5;2.3;;;;;;;4.37;76.12695;953.5964;;;;
2020/01/05 05:07:50;;;;;;;6.3;2.4;;;;;;;4.33;76.64941;953.603;;;;
2020/01/05 05:10:15;;;;;;;4.4;2.1;;;;;;;4.36;76.76855;953.6431;;;;
2020/01/05 05:12:40;;;;;;;4.5;2.1;;;;;;;4.36;76.86816;953.6375;;;;
2020/01/05 05:15:06;;;;;;;5.8;1.7;;;;;;;4.23;77.67773;953.5309;;;;
2020/01/05 05:17:31;;;;;;;3.6;1.8;;;;;;;4.21;77.68555;953.5811;;;;
2020/01/05 05:19:56;;;;;;;3.6;1.9;;;;;;;4.23;77.54102;953.6078;;;;
2020/01/05 05:22:22;;;;;;;5.4;2;;;;;;;4.24;77.37598;953.6624;;;;
2020/01/05 05:24:47;;;;;;;6.3;2.3;;;;;;;4.26;76.80469;953.7216;;;;
2020/01/05 05:27:12;;;;;;;4.3;2.2;;;;;;;4.25;76.91602;953.7464;;;;
2020/01/05 05:29:38;;;;;;;6.1;2.2;;;;;;;4.29;77.46387;953.7889;;;;
2020/01/05 05:32:03;;;;;;;5;2.3;;;;;;;4.36;76.74414;953.8337;;;;
2020/01/05 05:34:28;;;;;;;5.7;2.6;;;;;;;4.38;77.12988;953.8674;;;;
2020/01/05 05:36:53;;;;;;;4.8;2.8;;;;;;;4.42;76.95801;953.8898;;;;
2020/01/05 05:39:19;;;;;;;11.2;5.1;;;;;;;4.34;76.74121;953.9363;;;;
2020/01/05 05:41:44;;;;;;;10.8;3.8;;;;;;;4.3;76.27344;954.0254;;;;
2020/01/05 05:44:09;;;;;;;7.5;3.7;;;;;;;4.28;76.25684;953.9955;;;;
2020/01/05 05:46:34;;;;;;;6.3;3.2;;;;;;;4.3;76.67676;954.0573;;;;
2020/01/05 05:49:00;;;;;;;7.4;3.8;;;;;;;4.31;77.44531;954.0559;;;;
2020/01/05 05:51:25;;;;;;;5.9;2.4;;;;;;;4.19;77.09766;954.0539;;;;
2020/01/05 05:53:50;;;;;;;8.3;3;;;;;;;4.13;78.00977;954.0485;;;;
2020/01/05 05:56:15;;;;;;;5.2;2.3;;;;;;;4.08;78.29297;954.0502;;;;
2020/01/05 05:58:41;;;;;;;4.4;2.2;;;;;;;4.06;77.78125;953.9875;;;;
2020/01/05 06:01:06;;;;;;;7.2;2.4;;;;;;;4.04;77.62109;953.9286;;;;
2020/01/05 06:03:31;;;;;;;6.9;3.3;;;;;;;4.09;78.29297;953.8508;;;;
2020/01/05 06:05:56;;;;;;;8.1;4.1;;;;;;;4.1;78.14941;953.9227;;;;
2020/01/05 06:08:21;;;;;;;9.7;5;;;;;;;4.09;78.0791;953.889;;;;
2020/01/05 06:10:46;;;;;;;6.1;3.6;;;;;;;4.13;77.44629;953.9819;;;;
2020/01/05 06:13:11;;;;;;;4.8;2.3;;;;;;;4.16;77.23926;954.0083;;;;
2020/01/05 06:15:37;;;;;;;4.9;2.4;;;;;;;4.21;77.88867;954.0153;;;;
2020/01/05 06:18:02;;;;;;;5.1;2.8;;;;;;;4.21;77.30371;954.02;;;;
2020/01/05 06:20:27;;;;;;;4.9;2.5;;;;;;;4.21;77.80957;954.1042;;;;
2020/01/05 06:22:52;;;;;;;5.2;2.3;;;;;;;4.17;78.53223;954.14;;;;
2020/01/05 06:25:31;;;;;;;5.2;2.5;;;;;;;4.06;78.34375;954.181;;;;
2020/01/05 06:27:56;;;;;;;5.3;2.5;;;;;;;3.97;78.80078;954.1135;;;;
2020/01/05 06:30:21;;;;;;;4.7;2.4;;;;;;;3.95;79.00977;954.2358;;;;
2020/01/05 06:32:46;;;;;;;4.8;2.9;;;;;;;3.91;79.43066;954.1635;;;;
2020/01/05 06:35:11;;;;;;;5.9;3.2;;;;;;;3.86;80.09473;954.2445;;;;
2020/01/05 06:37:36;;;;;;;8.5;4.2;;;;;;;3.83;80.61621;954.1667;;;;
2020/01/05 06:40:01;;;;;;;5.7;3.3;;;;;;;3.7;80.77246;954.1556;;;;
2020/01/05 06:42:26;;;;;;;6.4;3.4;;;;;;;3.68;81.33008;954.2136;;;;
2020/01/05 06:44:52;;;;;;;6.9;3.2;;;;;;;3.73;81.26172;954.2435;;;;
2020/01/05 06:47:17;;;;;;;7;3.3;;;;;;;3.77;80.76465;954.2327;;;;
2020/01/05 06:49:42;;;;;;;4.9;2.9;;;;;;;3.77;80.03418;954.1981;;;;
2020/01/05 06:52:07;;;;;;;7;3.4;;;;;;;3.67;81.04785;954.2414;;;;
2020/01/05 06:54:32;;;;;;;6.8;3.4;;;;;;;3.64;82.17773;954.2152;;;;
2020/01/05 06:56:57;;;;;;;6.2;3.1;;;;;;;3.65;81.47168;954.2975;;;;
2020/01/05 06:59:22;;;;;;;5.9;2.3;;;;;;;3.65;81.45996;954.1766;;;;
2020/01/05 07:01:47;;;;;;;5.5;2.2;;;;;;;3.59;80.72754;954.1989;;;;
2020/01/05 07:04:12;;;;;;;4.7;2.1;;;;;;;3.5;81.4082;954.2749;;;;
2020/01/05 07:06:37;;;;;;;5.9;2.5;;;;;;;3.42;81.57227;954.395;;;;
2020/01/05 07:09:03;;;;;;;6.4;2.6;;;;;;;3.37;81.86719;954.3741;;;;
2020/01/05 07:11:28;;;;;;;6.3;2.8;;;;;;;3.4;81.42285;954.416;;;;
2020/01/05 07:13:53;;;;;;;6.8;3.1;;;;;;;3.44;81.39648;954.4104;;;;
2020/01/05 07:16:18;;;;;;;7.4;3.4;;;;;;;3.34;81.47852;954.3764;;;;
2020/01/05 07:18:43;;;;;;;8.3;4;;;;;;;3.32;81.80176;954.3351;;;;
2020/01/05 07:21:08;;;;;;;10.4;5.6;;;;;;;3.43;82.44043;954.4462;;;;
2020/01/05 07:23:33;;;;;;;9.4;5.6;;;;;;;3.51;83.22949;954.4171;;;;
2020/01/05 07:25:59;;;;;;;7.6;4.8;;;;;;;3.56;83.08105;954.4317;;;;
2020/01/05 07:28:24;;;;;;;9.9;5.5;;;;;;;3.63;82.5;954.3775;;;;
2020/01/05 07:30:49;;;;;;;7.7;5;;;;;;;3.73;82.27344;954.4207;;;;
2020/01/05 07:33:15;;;;;;;7.8;5.2;;;;;;;3.78;81.7207;954.4526;;;;
2020/01/05 07:35:40;;;;;;;8.9;5.4;;;;;;;3.8;81.64551;954.3823;;;;
2020/01/05 07:38:05;;;;;;;7.9;4.9;;;;;;;3.85;81.45313;954.4063;;;;
2020/01/05 07:40:30;;;;;;;7.8;4.6;;;;;;;3.85;81.29395;954.4517;;;;
2020/01/05 07:42:56;;;;;;;7.6;4.8;;;;;;;3.83;81.54004;954.4785;;;;
2020/01/05 07:45:27;;;;;;;7.7;5;;;;;;;3.84;81.36133;954.5263;;;;
2020/01/05 07:47:46;;;;;;;9.6;6.4;;;;;;;3.83;80.78516;954.4977;;;;
2020/01/05 07:52:36;;;;;;;12.9;7.1;;;;;;;4.01;80.60547;954.4135;;;;
2020/01/05 07:55:01;;;;;;;10.9;6.4;;;;;;;4.04;80.27539;954.4194;;;;
2020/01/05 07:57:26;;;;;;;9.6;6.1;;;;;;;4.08;80.25879;954.4335;;;;
2020/01/05 07:59:51;;;;;;;9.1;5.4;;;;;;;4.16;79.91504;954.4715;;;;
2020/01/05 08:02:16;;;;;;;11.6;6.5;;;;;;;4.12;79.1748;954.4811;;;;
2020/01/05 08:04:42;;;;;;;8.4;5.6;;;;;;;4.08;79.78809;954.4931;;;;
2020/01/05 08:07:07;;;;;;;9.6;6.4;;;;;;;4.19;79.9668;954.3488;;;;
2020/01/05 08:09:32;;;;;;;9.3;7.4;;;;;;;4.27;78.78711;954.4633;;;;
2020/01/05 08:11:58;;;;;;;8.7;5.8;;;;;;;4.35;78.33887;954.3725;;;;
2020/01/05 08:14:23;;;;;;;8.8;5.9;;;;;;;4.42;77.97168;954.3615;;;;
2020/01/05 08:16:48;;;;;;;7.4;4.5;;;;;;;4.49;77.04883;954.3423;;;;
2020/01/05 08:19:13;;;;;;;8.7;5.2;;;;;;;4.58;77.82129;954.3236;;;;
2020/01/05 08:21:38;;;;;;;11.5;7.8;;;;;;;4.76;77.14258;954.3218;;;;
2020/01/05 08:24:03;;;;;;;11.3;6.5;;;;;;;4.88;76.33105;954.2662;;;;
2020/01/05 08:26:29;;;;;;;7.6;4.6;;;;;;;5.02;75.56836;954.2161;;;;
2020/01/05 08:28:54;;;;;;;7.1;4.3;;;;;;;5.13;74.84375;954.2258;;;;
2020/01/05 08:31:19;;;;;;;15.2;11.5;;;;;;;5.16;74.2959;954.2711;;;;
2020/01/05 08:33:45;;;;;;;5.1;3.2;;;;;;;5.17;74.28613;954.1428;;;;
2020/01/05 08:36:10;;;;;;;6.5;3.3;;;;;;;5.29;74.30664;954.2522;;;;
2020/01/05 08:38:35;;;;;;;7.1;4.5;;;;;;;5.39;74.40234;954.2224;;;;
2020/01/05 08:41:01;;;;;;;5.4;2.9;;;;;;;5.59;73.47754;954.2056;;;;
2020/01/05 08:43:26;;;;;;;5.4;2.9;;;;;;;5.67;73.53711;954.2689;;;;
2020/01/05 08:45:51;;;;;;;5.6;3;;;;;;;5.66;73.08496;954.1925;;;;
2020/01/05 08:48:16;;;;;;;6.6;2.8;;;;;;;5.69;72.58203;954.2612;;;;
2020/01/05 08:50:41;;;;;;;5.1;2.8;;;;;;;5.66;73.86426;954.2684;;;;
2020/01/05 08:53:06;;;;;;;5.8;3;;;;;;;5.74;73.92188;954.3222;;;;
2020/01/05 08:55:32;;;;;;;5.9;2.8;;;;;;;5.95;70.91895;954.2913;;;;
2020/01/05 08:57:57;;;;;;;3.9;2.9;;;;;;;6.15;70.87402;954.238;;;;
2020/01/05 09:00:22;;;;;;;6.4;3.6;;;;;;;6.29;70.625;954.1846;;;;
2020/01/05 09:02:48;;;;;;;7.8;4.4;;;;;;;6.28;70.89551;954.1035;;;;
2020/01/05 09:05:13;;;;;;;7.3;4.1;;;;;;;6.26;70.31445;954.1964;;;;
2020/01/05 09:07:38;;;;;;;8.3;5.2;;;;;;;6.37;70.37988;954.128;;;;
2020/01/05 09:10:03;;;;;;;21.8;16.6;;;;;;;6.2;69.86426;954.1717;;;;
2020/01/05 09:12:28;;;;;;;61.4;41.1;;;;;;;5.82;70.32227;954.1522;;;;
2020/01/05 09:14:53;;;;;;;53.8;38.4;;;;;;;5.65;70.21484;954.1453;;;;
2020/01/05 09:17:19;;;;;;;11.6;8.8;;;;;;;5.79;71.27734;954.168;;;;
2020/01/05 09:19:44;;;;;;;11.3;8.6;;;;;;;6.06;69.42285;954.0616;;;;
2020/01/05 09:22:09;;;;;;;9.7;6.5;;;;;;;6.29;69.27832;954.1417;;;;
2020/01/05 09:24:35;;;;;;;10.1;5.9;;;;;;;6.42;67.97852;954.1495;;;;
2020/01/05 09:27:00;;;;;;;17.9;13.3;;;;;;;6.62;68.56348;954.0728;;;;
2020/01/05 09:29:25;;;;;;;41.7;29.8;;;;;;;6.86;66.61035;954.092;;;;
2020/01/05 09:31:50;;;;;;;17.7;12.9;;;;;;;7.04;66.04883;954.0883;;;;
2020/01/05 09:34:15;;;;;;;11.1;7.7;;;;;;;7.14;65.7373;954.0671;;;;
2020/01/05 09:36:40;;;;;;;9;4.5;;;;;;;7.2;65.64355;954.0383;;;;
2020/01/05 09:39:06;;;;;;;7.4;3;;;;;;;7.25;65.43555;954.0829;;;;
2020/01/05 09:41:31;;;;;;;5.5;3.2;;;;;;;7.37;64.84277;953.9888;;;;
2020/01/05 09:43:56;;;;;;;6.1;4.3;;;;;;;7.5;64.4873;953.9347;;;;
2020/01/05 09:46:22;;;;;;;6.4;2.5;;;;;;;7.24;64.91406;953.8795;;;;
2020/01/05 09:48:47;;;;;;;4.4;2.5;;;;;;;7.2;63.98828;953.8279;;;;
2020/01/05 09:51:12;;;;;;;4.3;2.1;;;;;;;7.23;64.27637;953.829;;;;
2020/01/05 09:53:37;;;;;;;3.7;2.1;;;;;;;7.43;63.55859;953.8253;;;;
2020/01/05 09:56:02;;;;;;;4;2.2;;;;;;;7.58;62.10645;953.8347;;;;
2020/01/05 09:58:27;;;;;;;4.3;1.9;;;;;;;7.37;63.0293;953.7875;;;;
2020/01/05 10:00:52;;;;;;;4.9;2;;;;;;;7.34;60.83594;953.8381;;;;
2020/01/05 10:03:18;;;;;;;5;2.2;;;;;;;7.31;62.41992;953.7761;;;;
2020/01/05 10:05:43;;;;;;;3.7;1.7;;;;;;;7.38;62.8252;953.7646;;;;
2020/01/05 10:08:08;;;;;;;4.2;1.6;;;;;;;7.2;62.22168;953.7134;;;;
2020/01/05 10:10:33;;;;;;;5.4;2.2;;;;;;;7.29;61.93066;953.6959;;;;
2020/01/05 10:12:59;;;;;;;4.8;1.8;;;;;;;7.26;61.82324;953.6802;;;;
2020/01/05 10:15:24;;;;;;;4.2;2;;;;;;;7.2;61.82422;953.6546;;;;
2020/01/05 10:17:49;;;;;;;5.3;2.3;;;;;;;7.3;63.26758;953.6541;;;;
2020/01/05 10:20:14;;;;;;;5;2.6;;;;;;;7.45;63.32422;953.5887;;;;
2020/01/05 10:22:39;;;;;;;4.7;2.3;;;;;;;7.43;62.89063;953.5466;;;;
2020/01/05 10:25:05;;;;;;;5.3;2.6;;;;;;;7.56;62.69434;953.4683;;;;
2020/01/05 10:27:36;;;;;;;6.6;3.4;;;;;;;7.55;63.44141;953.5176;;;;
2020/01/05 10:30:02;;;;;;;4.9;3.2;;;;;;;7.59;64.85059;953.3901;;;;
2020/01/05 10:32:29;;;;;;;4.4;2.4;;;;;;;7.31;64.0625;953.4208;;;;
2020/01/05 10:37:18;;;;;;;5.4;2.4;;;;;;;6.83;65.29297;953.5229;;;;
2020/01/05 10:39:36;;;;;;;4.7;2.2;;;;;;;6.71;64.87891;953.4702;;;;
2020/01/05 10:42:01;;;;;;;4.7;1.9;;;;;;;6.65;65.68555;953.503;;;;
2020/01/05 10:44:27;;;;;;;3;1.5;;;;;;;6.57;65.23047;953.4684;;;;
2020/01/05 10:46:52;;;;;;;3.9;2.1;;;;;;;6.28;66.13574;953.4208;;;;
2020/01/05 10:49:17;;;;;;;4.9;2.2;;;;;;;6.02;67.87012;953.4534;;;;
2020/01/05 10:51:43;;;;;;;5.3;3.7;;;;;;;6.12;67.54688;953.437;;;;
2020/01/05 10:54:08;;;;;;;4.9;2.3;;;;;;;6.13;67.61523;953.4066;;;;
2020/01/05 10:56:33;;;;;;;6.4;2.5;;;;;;;6.1;68.24316;953.325;;;;
2020/01/05 10:58:58;;;;;;;5.4;2.7;;;;;;;5.8;69.46094;953.3622;;;;
2020/01/05 11:01:23;;;;;;;3.6;1.7;;;;;;;5.45;70.72363;953.337;;;;
2020/01/05 11:03:48;;;;;;;4.2;2;;;;;;;5.36;71.61133;953.2958;;;;
2020/01/05 11:06:14;;;;;;;3.2;1.6;;;;;;;5.28;70.56055;953.2684;;;;
2020/01/05 11:08:39;;;;;;;5.5;2;;;;;;;5.29;71.05762;953.2413;;;;
2020/01/05 11:11:04;;;;;;;3.7;1.6;;;;;;;5.34;70.52441;953.1595;;;;
2020/01/05 11:13:30;;;;;;;3.4;1.5;;;;;;;5.24;70.9375;953.1819;;;;
2020/01/05 11:15:55;;;;;;;3.6;1.6;;;;;;;5.3;71.7041;953.1356;;;;
2020/01/05 11:18:20;;;;;;;3.7;1.7;;;;;;;5.45;71.4668;953.1055;;;;
2020/01/05 11:20:45;;;;;;;4;1.7;;;;;;;5.62;70.13184;953.0714;;;;
2020/01/05 11:23:10;;;;;;;3.6;1.4;;;;;;;5.8;68.74805;953.0544;;;;
2020/01/05 11:25:36;;;;;;;3.3;1.8;;;;;;;5.98;68.91211;953.0222;;;;
2020/01/05 11:28:01;;;;;;;5.2;1.7;;;;;;;6.07;69.01855;953.0115;;;;
2020/01/05 11:30:26;;;;;;;7.5;2;;;;;;;6.24;68.82031;952.9705;;;;
2020/01/05 11:32:51;;;;;;;4.1;1.6;;;;;;;6.29;67.94629;952.8974;;;;
2020/01/05 11:35:17;;;;;;;4;1.6;;;;;;;6.13;67.59277;952.8656;;;;
2020/01/05 11:37:42;;;;;;;3.7;1.7;;;;;;;6.26;67.375;952.8795;;;;
2020/01/05 11:40:07;;;;;;;3.9;1.7;;;;;;;6.42;66.87012;952.9153;;;;
2020/01/05 11:42:33;;;;;;;4.5;2;;;;;;;6.46;67.22656;952.9077;;;;
2020/01/05 11:44:58;;;;;;;5;2.2;;;;;;;6.42;68.10156;952.9144;;;;
2020/01/05 11:47:23;;;;;;;4.9;2.1;;;;;;;6.6;68.76563;952.8655;;;;
2020/01/05 11:49:48;;;;;;;5.5;2;;;;;;;6.63;66.24707;952.8663;;;;
2020/01/05 11:52:13;;;;;;;5.3;2;;;;;;;6.77;67.2168;952.8444;;;;
2020/01/05 11:54:39;;;;;;;5.2;2.1;;;;;;;6.88;65.87695;952.8195;;;;
2020/01/05 11:57:04;;;;;;;4.6;1.9;;;;;;;6.94;65.54688;952.7505;;;;
2020/01/05 11:59:29;;;;;;;4.9;1.9;;;;;;;7.11;63.9209;952.7516;;;;
2020/01/05 12:01:54;;;;;;;4.9;1.7;;;;;;;7.32;62.62402;952.6876;;;;
2020/01/05 12:04:19;;;;;;;4.9;1.9;;;;;;;7.32;63.72461;952.7053;;;;
2020/01/05 12:06:45;;;;;;;4.5;2;;;;;;;7.16;64.03906;952.6483;;;;
2020/01/05 12:09:10;;;;;;;6.1;2.1;;;;;;;7.03;64.38184;952.7374;;;;
2020/01/05 12:11:35;;;;;;;4.3;2.1;;;;;;;7.03;65.51563;952.6923;;;;
2020/01/05 12:14:00;;;;;;;6.3;2.3;;;;;;;7.07;65.2832;952.6346;;;;
2020/01/05 12:16:26;;;;;;;4.4;1.7;;;;;;;7.09;64.54004;952.524;;;;
2020/01/05 12:18:51;;;;;;;5.7;1.9;;;;;;;7.04;63.5918;952.5628;;;;
2020/01/05 12:21:16;;;;;;;4.2;2;;;;;;;6.91;64.4209;952.49;;;;
2020/01/05 12:23:41;;;;;;;4.5;2;;;;;;;7.09;65.25195;952.5089;;;;
2020/01/05 12:26:06;;;;;;;5;1.8;;;;;;;7.21;63.58301;952.5123;;;;
2020/01/05 12:28:31;;;;;;;5.3;2;;;;;;;7.26;64.03125;952.4749;;;;
2020/01/05 12:30:56;;;;;;;5.1;2.2;;;;;;;7.13;63.60449;952.495;;;;
2020/01/05 12:33:21;;;;;;;4.6;2.1;;;;;;;7.17;63.71387;952.5372;;;;
2020/01/05 12:35:46;;;;;;;4.9;1.9;;;;;;;7.15;63.76563;952.4529;;;;
2020/01/05 12:38:11;;;;;;;4.3;1.9;;;;;;;7.13;64.54395;952.4949;;;;
2020/01/05 12:40:36;;;;;;;5.2;2;;;;;;;7.17;63.67969;952.4636;;;;
2020/01/05 12:43:02;;;;;;;4.5;1.9;;;;;;;7.04;63.76172;952.3513;;;;
2020/01/05 12:45:27;;;;;;;5.1;1.9;;;;;;;6.9;65.30371;952.4106;;;;
2020/01/05 12:47:52;;;;;;;6.2;2;;;;;;;6.89;64.45313;952.4076;;;;
2020/01/05 12:50:17;;;;;;;4.7;2;;;;;;;6.96;64.42871;952.3546;;;;
2020/01/05 12:52:42;;;;;;;5.2;2.1;;;;;;;6.92;64.9209;952.4077;;;;
2020/01/05 12:55:07;;;;;;;6.2;2.2;;;;;;;7.01;64.32324;952.2497;;;;
2020/01/05 12:57:32;;;;;;;4.6;2;;;;;;;7.04;63.61426;952.2769;;;;
2020/01/05 12:59:57;;;;;;;5.9;2.1;;;;;;;7.07;64.83008;952.3744;;;;
2020/01/05 13:02:33;;;;;;;21.9;11;;;;;;;7.28;64.96484;952.3476;;;;
2020/01/05 13:04:47;;;;;;;21.7;11.7;;;;;;;7.42;62.76465;952.3596;;;;
2020/01/05 13:07:12;;;;;;;119.4;74.8;;;;;;;7.49;63.35254;952.3649;;;;
2020/01/05 13:09:40;;;;;;;103.1;64;;;;;;;7.59;62.56152;952.3661;;;;
2020/01/05 13:12:03;;;;;;;44.8;27.2;;;;;;;7.66;62.10742;952.3401;;;;
2020/01/05 13:14:27;;;;;;;85.1;54;;;;;;;7.83;62.62012;952.3691;;;;
2020/01/05 13:16:53;;;;;;;72.1;44.1;;;;;;;7.95;61.34277;952.3685;;;;
2020/01/05 13:19:18;;;;;;;29.2;17.8;;;;;;;8.21;61.57324;952.3831;;;;
2020/01/05 13:21:43;;;;;;;19.7;12.4;;;;;;;8.08;61.31738;952.3633;;;;
2020/01/05 13:24:08;;;;;;;47.6;30.9;;;;;;;7.92;61.80371;952.4386;;;;
2020/01/05 13:26:33;;;;;;;7.1;3.6;;;;;;;7.7;60.00391;952.4426;;;;
2020/01/05 13:28:59;;;;;;;16;9.1;;;;;;;7.88;60.6875;952.4331;;;;
2020/01/05 13:31:24;;;;;;;18.6;11.8;;;;;;;8.16;59.37598;952.5815;;;;
2020/01/05 13:33:49;;;;;;;15.4;9.2;;;;;;;8.1;59.32129;952.5662;;;;
2020/01/05 13:36:14;;;;;;;13.3;7.2;;;;;;;8.83;58.86523;952.579;;;;
2020/01/05 13:38:39;;;;;;;3.8;1.6;;;;;;;10.24;52.42773;952.6037;;;;
2020/01/05 13:41:05;;;;;;;3.2;1.3;;;;;;;11.78;47.96582;952.6234;;;;
2020/01/05 13:43:30;;;;;;;5.3;1.8;;;;;;;12.8;45.59961;952.5919;;;;
2020/01/05 13:45:55;;;;;;;2.7;1.7;;;;;;;13.18;44.09961;952.6479;;;;
2020/01/05 13:48:21;;;;;;;4.1;1.6;;;;;;;13.38;43.76367;952.6774;;;;
2020/01/05 13:50:46;;;;;;;4.6;1.8;;;;;;;11.95;46.25391;952.7109;;;;
2020/01/05 13:53:11;;;;;;;4.1;1.8;;;;;;;12.92;44.72754;952.722;;;;
2020/01/05 13:55:36;;;;;;;4.4;1.8;;;;;;;12.77;44.70117;952.7676;;;;
2020/01/05 13:58:01;;;;;;;5.9;2;;;;;;;12.68;44.54297;952.76;;;;
2020/01/05 14:00:26;;;;;;;4;1.7;;;;;;;13.13;44.30176;952.8224;;;;
2020/01/05 14:02:52;;;;;;;4.2;1.8;;;;;;;13.67;41.76855;952.785;;;;
2020/01/05 14:05:17;;;;;;;4.2;2.1;;;;;;;13.13;42.79688;952.7903;;;;
2020/01/05 14:07:42;;;;;;;4.6;1.9;;;;;;;11.32;47.28613;952.7414;;;;
2020/01/05 14:10:07;;;;;;;5.8;2;;;;;;;10.18;50.52637;952.6576;;;;
2020/01/05 14:12:33;;;;;;;5.4;2.3;;;;;;;9.13;54.0459;952.7391;;;;
2020/01/05 14:14:58;;;;;;;5;2.5;;;;;;;8.25;56.32031;952.7838;;;;
2020/01/05 14:17:23;;;;;;;7.3;2.2;;;;;;;8.14;57.43066;952.7346;;;;
2020/01/05 14:19:48;;;;;;;5;2.5;;;;;;;7.92;58.4668;952.8155;;;;
2020/01/05 14:22:13;;;;;;;4.9;2.2;;;;;;;7.72;59.21094;952.762;;;;
2020/01/05 14:24:39;;;;;;;7.1;2.6;;;;;;;7.49;60.07617;952.7762;;;;
2020/01/05 14:27:04;;;;;;;6.7;2.4;;;;;;;7.36;60.5791;952.859;;;;
2020/01/05 14:29:29;;;;;;;6.2;2.4;;;;;;;6.99;61.86328;952.8686;;;;
2020/01/05 14:31:55;;;;;;;5.6;2.3;;;;;;;6.84;62.58887;952.9091;;;;
2020/01/05 14:34:20;;;;;;;5.8;2.1;;;;;;;6.6;63.65137;952.9794;;;;
2020/01/05 14:36:45;;;;;;;6.4;2.6;;;;;;;6.58;63.81836;952.9547;;;;
2020/01/05 14:39:11;;;;;;;6.1;2.6;;;;;;;6.59;63.9209;953.092;;;;
2020/01/05 14:41:36;;;;;;;5.6;2.7;;;;;;;6.56;64.0752;953.1301;;;;
2020/01/05 14:44:01;;;;;;;7.1;2.8;;;;;;;6.37;65.00879;953.0678;;;;
2020/01/05 14:46:26;;;;;;;5.1;2.5;;;;;;;6.26;65.30664;953.0978;;;;
2020/01/05 14:48:51;;;;;;;7.3;2.7;;;;;;;6.3;65.24512;953.197;;;;
2020/01/05 14:51:16;;;;;;;9.1;4;;;;;;;6.05;67.19531;953.2484;;;;
2020/01/05 14:53:41;;;;;;;5.5;3;;;;;;;6.06;66.97266;953.2695;;;;
2020/01/05 14:56:06;;;;;;;6.6;3.1;;;;;;;5.86;67.81055;953.3544;;;;
2020/01/05 14:58:32;;;;;;;7.2;3.6;;;;;;;5.88;68.0498;953.3734;;;;
2020/01/05 15:00:57;;;;;;;8.8;4;;;;;;;5.71;68.88184;953.389;;;;
2020/01/05 15:03:22;;;;;;;7.4;3.6;;;;;;;5.58;69.73047;953.2928;;;;
2020/01/05 15:05:47;;;;;;;6;3.3;;;;;;;5.4;70.43262;953.3585;;;;
2020/01/05 15:08:12;;;;;;;7.4;3.6;;;;;;;5.33;71.09961;953.3826;;;;
2020/01/05 15:10:37;;;;;;;6.5;3.4;;;;;;;5.45;70.78027;953.3617;;;;
2020/01/05 15:13:02;;;;;;;7;3.7;;;;;;;5.43;71.02539;953.3953;;;;
2020/01/05 15:15:28;;;;;;;5.2;3.6;;;;;;;5.49;70.84277;953.3755;;;;
2020/01/05 15:17:53;;;;;;;6.4;3.9;;;;;;;5.33;71.50488;953.3922;;;;
2020/01/05 15:20:18;;;;;;;6.4;3.8;;;;;;;5.45;71.09766;953.3358;;;;
2020/01/05 15:22:43;;;;;;;7.4;4.2;;;;;;;5.4;71.51758;953.4794;;;;
2020/01/05 15:25:08;;;;;;;8.1;4.1;;;;;;;5.43;71.44336;953.4671;;;;
2020/01/05 15:27:33;;;;;;;6.8;4.1;;;;;;;5.33;71.85547;953.5397;;;;
2020/01/05 15:29:58;;;;;;;7.2;4.3;;;;;;;5.36;71.81445;953.5745;;;;
2020/01/05 15:32:23;;;;;;;6.9;4.1;;;;;;;5.37;71.91797;953.6241;;;;
2020/01/05 15:34:48;;;;;;;7.2;4.1;;;;;;;5.32;72.23535;953.6545;;;;
2020/01/05 15:37:14;;;;;;;7.4;4.1;;;;;;;5.22;72.64746;953.7001;;;;
2020/01/05 15:39:39;;;;;;;7.7;4.7;;;;;;;5.18;72.84375;953.7233;;;;
2020/01/05 15:42:04;;;;;;;8.2;5.1;;;;;;;5.17;72.93262;953.7693;;;;